Statesboro, GA

11:45 AM EST on February 13, 2016 (GMT -0500)
Statesboro-Bulloch County | | Change Station
CLOSE
Current Station
Airport
Location: Statesboro,
Elevation: 187 ft
Nearby Weather Stations
Active Advisory: Flood Warning

Elev 187 ft 32.48 °N, 81.74 °W | Updated 10 minutes ago

Clear
Clear
50 °F
Feels Like 50 °F
N
10
Wind Variable Wind from NW

Today
High -- | Low -- °F
--% Chance of Precip.
Yesterday
High -- | Low -- °F
Precip. -- in
Pressure 30.31 in
Visibility 10.0 miles
Clouds Clear
Dew Point 17 °F
Humidity 27%
Rainfall 0.00 in
Snow Depth Not available.
7:12 AM 6:10 PM
Waxing Crescent, 32% visible
METAR KTBR 131635Z AUTO 31009KT 10SM CLR 10/M08 A3031 RMK AO2 T00971084
Pressure 30.31 in
Visibility 10.0 miles
Clouds Clear
Dew Point 17 °F
Humidity 27%
Rainfall 0.00 in
Snow Depth Not available.
7:12 AM 6:10 PM
Waxing Crescent, 32% visible
METAR KTBR 131635Z AUTO 31009KT 10SM CLR 10/M08 A3031 RMK AO2 T00971084

10-Day Weather Forecast

Almanac

Astronomy

Feb. 13, 2016 Rise Set
Actual Time
Civil Twilight
Nautical Twilight
Astronomical Twilight
Moon
Length of Visible Light
Length of Day
Tomorrow will be .
, % of the Moon is Illuminated

Today's Extremes

State Highs State Lows

Community

WunderPhotos

Upload Photos

1,892,604 photos uploaded!

WunderBlog® & News

Nearby

Air Quality

  Air Quality AQ Index Pollutant
Not available.

Snow Depth

Station Depth Elevation

Earthquake Activity

City Distance Mag. Time & Date
Minimum magnitude displayed is 2.5.

Coastal Water Temperatures

Place Temperature

Stations

Nearby Weather Stations

Station Location Temp. Windchill Dew Point Humidity Wind Precip. Elev Updated Type
                   

Watches & Warnings

Flood Warning
Issued: 9:28 AM EST Feb. 13, 2016 – National Weather Service

The Flood Warning continues for
the Ogeechee river near Eden.
* At 8 am Saturday the stage was 12.5 feet.
* Flood stage is 11.0 feet.
* Minor flooding is occurring.
* Forecast, the river will continue to fall.
* At 12.0 feet, water encroaches on some homes along dashers Landing
Road and Yarbrough Landing Road. Davis Landing Road also becomes
impassable.


Lat... Lon 3246 8160 3252 8152 3227 8140 3208 8133
          3206 8143 3223 8150